sensor_id;sensor_type;location;lat;lon;timestamp;pressure;altitude;pressure_sealevel;temperature;humidity
74905;BME280;63465;50.862;6.220;2023-10-08T00:01:34;100691.06;;;17.72;100.00
74905;BME280;63465;50.862;6.220;2023-10-08T00:04:00;100695.72;;;17.69;100.00
74905;BME280;63465;50.862;6.220;2023-10-08T00:06:29;100688.25;;;17.59;100.00
74905;BME280;63465;50.862;6.220;2023-10-08T00:08:55;100706.19;;;17.59;100.00
74905;BME280;63465;50.862;6.220;2023-10-08T00:11:25;100704.06;;;17.64;100.00
74905;BME280;63465;50.862;6.220;2023-10-08T00:13:51;100714.53;;;17.54;100.00
74905;BME280;63465;50.862;6.220;2023-10-08T00:16:21;100717.97;;;17.56;100.00
74905;BME280;63465;50.862;6.220;2023-10-08T00:18:47;100710.22;;;17.52;100.00
74905;BME280;63465;50.862;6.220;2023-10-08T00:21:19;100711.47;;;17.46;100.00
74905;BME280;63465;50.862;6.220;2023-10-08T00:23:45;100718.66;;;17.60;100.00
74905;BME280;63465;50.862;6.220;2023-10-08T00:26:23;100715.78;;;17.48;100.00
74905;BME280;63465;50.862;6.220;2023-10-08T00:28:54;100714.44;;;17.41;100.00
74905;BME280;63465;50.862;6.220;2023-10-08T00:31:20;100708.19;;;17.41;100.00
74905;BME280;63465;50.862;6.220;2023-10-08T00:33:49;100719.81;;;17.41;100.00
74905;BME280;63465;50.862;6.220;2023-10-08T00:36:14;100708.19;;;17.41;100.00
74905;BME280;63465;50.862;6.220;2023-10-08T00:38:44;100705.50;;;17.41;100.00
74905;BME280;63465;50.862;6.220;2023-10-08T00:41:18;100714.25;;;17.44;100.00
74905;BME280;63465;50.862;6.220;2023-10-08T00:43:50;100716.72;;;17.33;100.00
74905;BME280;63465;50.862;6.220;2023-10-08T00:46:17;100705.13;;;17.33;100.00
74905;BME280;63465;50.862;6.220;2023-10-08T00:48:51;100711.16;;;17.36;100.00
74905;BME280;63465;50.862;6.220;2023-10-08T00:51:21;100708.09;;;17.28;100.00
74905;BME280;63465;50.862;6.220;2023-10-08T00:53:50;100693.91;;;17.26;100.00
74905;BME280;63465;50.862;6.220;2023-10-08T00:56:18;100694.78;;;17.26;100.00
74905;BME280;63465;50.862;6.220;2023-10-08T00:58:45;100699.94;;;17.29;100.00
74905;BME280;63465;50.862;6.220;2023-10-08T01:01:17;100683.75;;;17.17;100.00
74905;BME280;63465;50.862;6.220;2023-10-08T01:03:45;100692.16;;;17.10;100.00
74905;BME280;63465;50.862;6.220;2023-10-08T01:06:11;100680.28;;;17.15;100.00
74905;BME280;63465;50.862;6.220;2023-10-08T01:08:37;100687.88;;;17.22;100.00
74905;BME280;63465;50.862;6.220;2023-10-08T01:11:24;100684.78;;;17.14;100.00
74905;BME280;63465;50.862;6.220;2023-10-08T01:14:07;100693.88;;;17.11;100.00
74905;BME280;63465;50.862;6.220;2023-10-08T01:16:33;100695.91;;;17.08;100.00
74905;BME280;63465;50.862;6.220;2023-10-08T01:19:00;100694.34;;;17.04;100.00
74905;BME280;63465;50.862;6.220;2023-10-08T01:21:28;100702.28;;;17.05;100.00
74905;BME280;63465;50.862;6.220;2023-10-08T01:24:01;100701.44;;;17.05;100.00
74905;BME280;63465;50.862;6.220;2023-10-08T01:26:27;100712.34;;;17.02;100.00
74905;BME280;63465;50.862;6.220;2023-10-08T01:28:56;100700.16;;;16.96;100.00
74905;BME280;63465;50.862;6.220;2023-10-08T01:31:22;100702.28;;;17.05;100.00
74905;BME280;63465;50.862;6.220;2023-10-08T01:33:47;100700.94;;;16.98;100.00
74905;BME280;63465;50.862;6.220;2023-10-08T01:36:15;100685.91;;;16.96;100.00
74905;BME280;63465;50.862;6.220;2023-10-08T01:38:41;100692.13;;;16.96;100.00
74905;BME280;63465;50.862;6.220;2023-10-08T01:41:13;100692.31;;;16.93;100.00
74905;BME280;63465;50.862;6.220;2023-10-08T01:43:48;100687.13;;;16.90;100.00
74905;BME280;63465;50.862;6.220;2023-10-08T01:46:17;100692.50;;;16.90;100.00
74905;BME280;63465;50.862;6.220;2023-10-08T01:48:44;100692.50;;;16.90;100.00
74905;BME280;63465;50.862;6.220;2023-10-08T01:51:10;100697.00;;;16.89;100.00
74905;BME280;63465;50.862;6.220;2023-10-08T01:53:37;100701.81;;;16.83;100.00
74905;BME280;63465;50.862;6.220;2023-10-08T01:56:04;100707.53;;;16.76;100.00
74905;BME280;63465;50.862;6.220;2023-10-08T01:58:29;100721.63;;;16.80;100.00
74905;BME280;63465;50.862;6.220;2023-10-08T02:00:55;100712.72;;;16.80;100.00
74905;BME280;63465;50.862;6.220;2023-10-08T02:03:24;100718.06;;;16.80;100.00
74905;BME280;63465;50.862;6.220;2023-10-08T02:05:50;100710.94;;;16.64;100.00
74905;BME280;63465;50.862;6.220;2023-10-08T02:08:19;100701.00;;;16.66;100.00
74905;BME280;63465;50.862;6.220;2023-10-08T02:10:45;100697.34;;;16.67;100.00
74905;BME280;63465;50.862;6.220;2023-10-08T02:13:13;100692.09;;;16.66;100.00
74905;BME280;63465;50.862;6.220;2023-10-08T02:15:48;100680.41;;;16.67;100.00
74905;BME280;63465;50.862;6.220;2023-10-08T02:18:16;100673.22;;;16.67;100.00
74905;BME280;63465;50.862;6.220;2023-10-08T02:20:42;100668.75;;;16.68;100.00
74905;BME280;63465;50.862;6.220;2023-10-08T02:23:08;100686.28;;;16.73;100.00
74905;BME280;63465;50.862;6.220;2023-10-08T02:25:37;100672.16;;;16.55;100.00
74905;BME280;63465;50.862;6.220;2023-10-08T02:28:03;100679.94;;;16.60;100.00
74905;BME280;63465;50.862;6.220;2023-10-08T02:30:29;100697.81;;;16.59;100.00
74905;BME280;63465;50.862;6.220;2023-10-08T02:32:54;100687.00;;;16.61;100.00
74905;BME280;63465;50.862;6.220;2023-10-08T02:35:19;100686.59;;;16.53;100.00
74905;BME280;63465;50.862;6.220;2023-10-08T02:37:45;100686.00;;;16.48;100.00
74905;BME280;63465;50.862;6.220;2023-10-08T02:40:11;100686.94;;;16.47;100.00
74905;BME280;63465;50.862;6.220;2023-10-08T02:42:47;100687.88;;;16.46;100.00
74905;BME280;63465;50.862;6.220;2023-10-08T02:45:13;100697.56;;;16.48;100.00
74905;BME280;63465;50.862;6.220;2023-10-08T02:47:43;100695.94;;;16.46;100.00
74905;BME280;63465;50.862;6.220;2023-10-08T02:50:11;100695.75;;;16.49;100.00
74905;BME280;63465;50.862;6.220;2023-10-08T02:52:36;100705.69;;;16.47;100.00
74905;BME280;63465;50.862;6.220;2023-10-08T02:55:02;100713.47;;;16.51;100.00
74905;BME280;63465;50.862;6.220;2023-10-08T02:57:28;100720.47;;;16.54;100.00
74905;BME280;63465;50.862;6.220;2023-10-08T02:59:55;100710.13;;;16.48;100.00
74905;BME280;63465;50.862;6.220;2023-10-08T03:02:20;100693.06;;;16.49;100.00
74905;BME280;63465;50.862;6.220;2023-10-08T03:04:48;100698.44;;;16.49;100.00
74905;BME280;63465;50.862;6.220;2023-10-08T03:07:14;100703.09;;;16.45;100.00
74905;BME280;63465;50.862;6.220;2023-10-08T03:09:57;100704.31;;;16.55;100.00
74905;BME280;63465;50.862;6.220;2023-10-08T03:12:30;100698.06;;;16.55;100.00
74905;BME280;63465;50.862;6.220;2023-10-08T03:14:59;100705.25;;;16.54;100.00
74905;BME280;63465;50.862;6.220;2023-10-08T03:17:37;100708.78;;;16.55;100.00
74905;BME280;63465;50.862;6.220;2023-10-08T03:20:03;100717.00;;;16.52;100.00
74905;BME280;63465;50.862;6.220;2023-10-08T03:23:08;100712.34;;;16.55;100.00
74905;BME280;63465;50.862;6.220;2023-10-08T03:25:52;100716.06;;;16.53;100.00
74905;BME280;63465;50.862;6.220;2023-10-08T03:28:24;100712.44;;;16.54;100.00
74905;BME280;63465;50.862;6.220;2023-10-08T03:30:51;100724.09;;;16.53;100.00
74905;BME280;63465;50.862;6.220;2023-10-08T03:33:17;100719.69;;;16.52;100.00
74905;BME280;63465;50.862;6.220;2023-10-08T03:35:49;100723.59;;;16.46;100.00
74905;BME280;63465;50.862;6.220;2023-10-08T03:38:21;100730.06;;;16.42;100.00
74905;BME280;63465;50.862;6.220;2023-10-08T03:40:56;100730.56;;;16.49;100.00
74905;BME280;63465;50.862;6.220;2023-10-08T03:43:34;100734.56;;;16.41;100.00
74905;BME280;63465;50.862;6.220;2023-10-08T03:46:07;100740.16;;;16.37;100.00
74905;BME280;63465;50.862;6.220;2023-10-08T03:48:40;100734.72;;;16.38;100.00
74905;BME280;63465;50.862;6.220;2023-10-08T03:51:08;100744.00;;;16.33;100.00
74905;BME280;63465;50.862;6.220;2023-10-08T03:53:37;100742.94;;;16.35;100.00
74905;BME280;63465;50.862;6.220;2023-10-08T03:56:22;100738.56;;;16.34;100.00
74905;BME280;63465;50.862;6.220;2023-10-08T03:58:50;100732.47;;;16.31;100.00
74905;BME280;63465;50.862;6.220;2023-10-08T04:01:15;100728.78;;;16.33;100.00
74905;BME280;63465;50.862;6.220;2023-10-08T04:03:44;100731.03;;;16.25;100.00
74905;BME280;63465;50.862;6.220;2023-10-08T04:06:30;100724.03;;;16.22;100.00
74905;BME280;63465;50.862;6.220;2023-10-08T04:09:01;100712.47;;;16.22;100.00
74905;BME280;63465;50.862;6.220;2023-10-08T04:11:36;100721.25;;;16.24;100.00
74905;BME280;63465;50.862;6.220;2023-10-08T04:14:01;100714.97;;;16.25;100.00
74905;BME280;63465;50.862;6.220;2023-10-08T04:16:28;100719.69;;;16.20;100.00
74905;BME280;63465;50.862;6.220;2023-10-08T04:18:56;100727.03;;;16.16;100.00
74905;BME280;63465;50.862;6.220;2023-10-08T04:21:22;100734.22;;;16.16;100.00
74905;BME280;63465;50.862;6.220;2023-10-08T04:23:53;100737.06;;;16.13;100.00
74905;BME280;63465;50.862;6.220;2023-10-08T04:26:21;100750.56;;;16.11;100.00
74905;BME280;63465;50.862;6.220;2023-10-08T04:28:50;100742.59;;;16.10;100.00
74905;BME280;63465;50.862;6.220;2023-10-08T04:31:20;100756.16;;;16.07;100.00
74905;BME280;63465;50.862;6.220;2023-10-08T04:33:50;100758.03;;;16.04;100.00
74905;BME280;63465;50.862;6.220;2023-10-08T04:36:16;100749.91;;;16.06;100.00
74905;BME280;63465;50.862;6.220;2023-10-08T04:38:45;100749.91;;;16.06;100.00
74905;BME280;63465;50.862;6.220;2023-10-08T04:41:15;100766.88;;;16.07;100.00
74905;BME280;63465;50.862;6.220;2023-10-08T04:43:44;100775.00;;;16.05;100.00
74905;BME280;63465;50.862;6.220;2023-10-08T04:46:10;100760.91;;;16.17;100.00
74905;BME280;63465;50.862;6.220;2023-10-08T04:48:47;100763.66;;;16.00;100.00
74905;BME280;63465;50.862;6.220;2023-10-08T04:51:14;100762.72;;;16.01;100.00
74905;BME280;63465;50.862;6.220;2023-10-08T04:53:39;100768.56;;;15.92;100.00
74905;BME280;63465;50.862;6.220;2023-10-08T04:56:10;100771.00;;;15.96;100.00
74905;BME280;63465;50.862;6.220;2023-10-08T04:58:40;100768.16;;;15.99;100.00
74905;BME280;63465;50.862;6.220;2023-10-08T05:01:09;100773.06;;;15.91;100.00
74905;BME280;63465;50.862;6.220;2023-10-08T05:03:44;100762.06;;;15.80;100.00
74905;BME280;63465;50.862;6.220;2023-10-08T05:06:32;100756.63;;;15.81;100.00
74905;BME280;63465;50.862;6.220;2023-10-08T05:09:09;100753.09;;;15.81;100.00
74905;BME280;63465;50.862;6.220;2023-10-08T05:11:38;100737.81;;;15.83;100.00
74905;BME280;63465;50.862;6.220;2023-10-08T05:14:15;100749.47;;;15.82;100.00
74905;BME280;63465;50.862;6.220;2023-10-08T05:17:08;100764.66;;;15.81;100.00
74905;BME280;63465;50.862;6.220;2023-10-08T05:19:47;100765.97;;;15.90;100.00
74905;BME280;63465;50.862;6.220;2023-10-08T05:22:16;100771.31;;;15.90;100.00
74905;BME280;63465;50.862;6.220;2023-10-08T05:24:55;100771.91;;;15.79;100.00
74905;BME280;63465;50.862;6.220;2023-10-08T05:27:38;100771.66;;;15.84;100.00
74905;BME280;63465;50.862;6.220;2023-10-08T05:30:23;100768.47;;;15.76;100.00
74905;BME280;63465;50.862;6.220;2023-10-08T05:33:18;100770.38;;;15.74;100.00
74905;BME280;63465;50.862;6.220;2023-10-08T05:35:51;100776.66;;;15.73;100.00
74905;BME280;63465;50.862;6.220;2023-10-08T05:38:22;100776.13;;;15.66;100.00
74905;BME280;63465;50.862;6.220;2023-10-08T05:40:50;100780.56;;;15.67;100.00
74905;BME280;63465;50.862;6.220;2023-10-08T05:48:53;100782.84;;;15.57;100.00
74905;BME280;63465;50.862;6.220;2023-10-08T05:51:33;100779.72;;;15.49;100.00
74905;BME280;63465;50.862;6.220;2023-10-08T05:54:24;100793.09;;;15.49;100.00
74905;BME280;63465;50.862;6.220;2023-10-08T05:57:08;100796.69;;;15.48;100.00
74905;BME280;63465;50.862;6.220;2023-10-08T06:02:24;100791.97;;;15.36;100.00
74905;BME280;63465;50.862;6.220;2023-10-08T06:05:05;100798.22;;;15.36;100.00
74905;BME280;63465;50.862;6.220;2023-10-08T06:07:41;100801.03;;;15.33;100.00
74905;BME280;63465;50.862;6.220;2023-10-08T06:10:15;100795.03;;;15.28;100.00
74905;BME280;63465;50.862;6.220;2023-10-08T06:12:58;100808.03;;;15.36;100.00
74905;BME280;63465;50.862;6.220;2023-10-08T06:15:40;100805.50;;;15.32;100.00
74905;BME280;63465;50.862;6.220;2023-10-08T06:18:22;100809.00;;;15.34;100.00
74905;BME280;63465;50.862;6.220;2023-10-08T06:23:27;100815.81;;;15.40;100.00
74905;BME280;63465;50.862;6.220;2023-10-08T06:25:54;100819.13;;;15.45;100.00
74905;BME280;63465;50.862;6.220;2023-10-08T06:28:25;100821.88;;;15.44;100.00
74905;BME280;63465;50.862;6.220;2023-10-08T06:30:52;100826.28;;;15.45;100.00
74905;BME280;63465;50.862;6.220;2023-10-08T06:33:25;100824.00;;;15.37;100.00
74905;BME280;63465;50.862;6.220;2023-10-08T06:35:56;100837.94;;;15.44;100.00
74905;BME280;63465;50.862;6.220;2023-10-08T06:38:31;100833.38;;;15.46;100.00
74905;BME280;63465;50.862;6.220;2023-10-08T06:41:04;100844.75;;;15.49;100.00
74905;BME280;63465;50.862;6.220;2023-10-08T06:43:44;100838.72;;;15.46;100.00
74905;BME280;63465;50.862;6.220;2023-10-08T06:46:14;100847.06;;;15.40;100.00
74905;BME280;63465;50.862;6.220;2023-10-08T06:48:41;100861.69;;;15.50;100.00
74905;BME280;63465;50.862;6.220;2023-10-08T06:51:11;100857.44;;;15.46;100.00
74905;BME280;63465;50.862;6.220;2023-10-08T06:53:43;100855.88;;;15.59;100.00
74905;BME280;63465;50.862;6.220;2023-10-08T06:56:10;100853.03;;;15.62;100.00
74905;BME280;63465;50.862;6.220;2023-10-08T06:58:38;100871.63;;;15.65;100.00
74905;BME280;63465;50.862;6.220;2023-10-08T07:01:04;100855.97;;;15.58;100.00
74905;BME280;63465;50.862;6.220;2023-10-08T07:03:31;100853.59;;;15.51;100.00
74905;BME280;63465;50.862;6.220;2023-10-08T07:05:59;100853.50;;;15.53;100.00
74905;BME280;63465;50.862;6.220;2023-10-08T07:08:27;100845.97;;;15.44;100.00
74905;BME280;63465;50.862;6.220;2023-10-08T07:10:56;100838.94;;;15.41;100.00
74905;BME280;63465;50.862;6.220;2023-10-08T07:13:24;100837.53;;;15.51;100.00
74905;BME280;63465;50.862;6.220;2023-10-08T07:15:50;100834.31;;;15.45;100.00
74905;BME280;63465;50.862;6.220;2023-10-08T07:18:16;100834.13;;;15.48;100.00
74905;BME280;63465;50.862;6.220;2023-10-08T07:20:51;100829.03;;;15.43;100.00
74905;BME280;63465;50.862;6.220;2023-10-08T07:23:21;100819.06;;;15.47;100.00
74905;BME280;63465;50.862;6.220;2023-10-08T07:25:54;100816.22;;;15.50;100.00
74905;BME280;63465;50.862;6.220;2023-10-08T07:28:23;100822.88;;;15.59;100.00
74905;BME280;63465;50.862;6.220;2023-10-08T07:30:50;100825.25;;;15.65;100.00
74905;BME280;63465;50.862;6.220;2023-10-08T07:33:17;100828.97;;;15.80;100.00
74905;BME280;63465;50.862;6.220;2023-10-08T07:35:47;100829.16;;;15.75;100.00
74905;BME280;63465;50.862;6.220;2023-10-08T07:38:38;100820.94;;;15.80;100.00
74905;BME280;63465;50.862;6.220;2023-10-08T07:41:07;100818.09;;;15.83;100.00
74905;BME280;63465;50.862;6.220;2023-10-08T07:43:33;100815.56;;;15.97;100.00
74905;BME280;63465;50.862;6.220;2023-10-08T07:45:58;100816.50;;;15.96;100.00
74905;BME280;63465;50.862;6.220;2023-10-08T07:48:25;100827.53;;;16.23;100.00
74905;BME280;63465;50.862;6.220;2023-10-08T07:50:55;100827.53;;;16.39;100.00
74905;BME280;63465;50.862;6.220;2023-10-08T07:53:22;100817.88;;;16.53;100.00
74905;BME280;63465;50.862;6.220;2023-10-08T07:55:50;100818.91;;;16.50;100.00
74905;BME280;63465;50.862;6.220;2023-10-08T07:58:16;100814.69;;;16.62;100.00
74905;BME280;63465;50.862;6.220;2023-10-08T08:00:43;100804.06;;;16.61;100.00
74905;BME280;63465;50.862;6.220;2023-10-08T08:03:19;100818.50;;;16.90;100.00
74905;BME280;63465;50.862;6.220;2023-10-08T08:05:45;100808.84;;;16.86;100.00
74905;BME280;63465;50.862;6.220;2023-10-08T08:08:11;100816.66;;;16.90;100.00
74905;BME280;63465;50.862;6.220;2023-10-08T08:10:43;100821.00;;;16.93;100.00
74905;BME280;63465;50.862;6.220;2023-10-08T08:13:09;100817.38;;;16.94;100.00
74905;BME280;63465;50.862;6.220;2023-10-08T08:15:34;100819.25;;;17.08;100.00
74905;BME280;63465;50.862;6.220;2023-10-08T08:18:07;100810.69;;;17.01;100.00
74905;BME280;63465;50.862;6.220;2023-10-08T08:20:34;100814.66;;;17.10;100.00
74905;BME280;63465;50.862;6.220;2023-10-08T08:23:06;100807.47;;;17.10;100.00
74905;BME280;63465;50.862;6.220;2023-10-08T08:25:39;100822.69;;;17.26;100.00
74905;BME280;63465;50.862;6.220;2023-10-08T08:28:14;100814.00;;;17.37;100.00
74905;BME280;63465;50.862;6.220;2023-10-08T08:30:43;100805.88;;;17.67;100.00
74905;BME280;63465;50.862;6.220;2023-10-08T08:33:12;100815.38;;;17.58;100.00
74905;BME280;63465;50.862;6.220;2023-10-08T08:35:39;100816.34;;;17.57;100.00
74905;BME280;63465;50.862;6.220;2023-10-08T08:38:04;100823.53;;;17.71;100.00
74905;BME280;63465;50.862;6.220;2023-10-08T08:40:31;100832.00;;;17.79;100.00
74905;BME280;63465;50.862;6.220;2023-10-08T08:42:59;100829.16;;;17.97;100.00
74905;BME280;63465;50.862;6.220;2023-10-08T08:45:27;100828.03;;;18.15;100.00
74905;BME280;63465;50.862;6.220;2023-10-08T08:47:56;100831.56;;;18.02;100.00
74905;BME280;63465;50.862;6.220;2023-10-08T08:50:22;100829.16;;;18.11;100.00
74905;BME280;63465;50.862;6.220;2023-10-08T08:52:48;100829.63;;;18.32;100.00
74905;BME280;63465;50.862;6.220;2023-10-08T08:55:13;100840.78;;;18.26;100.00
74905;BME280;63465;50.862;6.220;2023-10-08T08:57:48;100846.03;;;18.57;100.00
74905;BME280;63465;50.862;6.220;2023-10-08T09:00:16;100850.25;;;18.46;100.00
74905;BME280;63465;50.862;6.220;2023-10-08T09:02:42;100859.28;;;18.60;100.00
74905;BME280;63465;50.862;6.220;2023-10-08T09:05:10;100859.41;;;19.00;100.00
74905;BME280;63465;50.862;6.220;2023-10-08T09:07:59;100865.81;;;19.12;100.00
74905;BME280;63465;50.862;6.220;2023-10-08T09:10:28;100864.06;;;18.69;100.00
74905;BME280;63465;50.862;6.220;2023-10-08T09:12:55;100874.00;;;18.96;100.00
74905;BME280;63465;50.862;6.220;2023-10-08T09:15:25;100873.66;;;18.87;100.00
74905;BME280;63465;50.862;6.220;2023-10-08T09:17:52;100876.38;;;19.00;100.00
74905;BME280;63465;50.862;6.220;2023-10-08T09:20:18;100871.41;;;18.94;100.00
74905;BME280;63465;50.862;6.220;2023-10-08T09:22:45;100872.69;;;18.88;100.00
74905;BME280;63465;50.862;6.220;2023-10-08T09:25:19;100879.69;;;18.77;100.00
74905;BME280;63465;50.862;6.220;2023-10-08T09:27:50;100880.47;;;19.20;100.00
74905;BME280;63465;50.862;6.220;2023-10-08T09:30:20;100871.91;;;20.58;100.00
74905;BME280;63465;50.862;6.220;2023-10-08T09:32:47;100870.63;;;22.07;100.00
74905;BME280;63465;50.862;6.220;2023-10-08T09:35:13;100865.16;;;21.73;100.00
74905;BME280;63465;50.862;6.220;2023-10-08T09:37:39;100870.75;;;21.95;100.00
74905;BME280;63465;50.862;6.220;2023-10-08T09:40:07;100880.19;;;21.89;100.00
74905;BME280;63465;50.862;6.220;2023-10-08T09:42:37;100881.78;;;21.56;100.00
74905;BME280;63465;50.862;6.220;2023-10-08T09:45:04;100891.97;;;20.54;100.00
74905;BME280;63465;50.862;6.220;2023-10-08T09:47:38;100894.41;;;22.38;100.00
74905;BME280;63465;50.862;6.220;2023-10-08T09:50:05;100885.00;;;22.08;100.00
74905;BME280;63465;50.862;6.220;2023-10-08T09:52:42;100887.94;;;21.10;100.00
74905;BME280;63465;50.862;6.220;2023-10-08T09:55:10;100895.19;;;22.04;100.00
74905;BME280;63465;50.862;6.220;2023-10-08T09:57:36;100895.13;;;21.46;100.00
74905;BME280;63465;50.862;6.220;2023-10-08T10:00:04;100891.78;;;22.82;100.00
74905;BME280;63465;50.862;6.220;2023-10-08T10:02:32;100886.59;;;21.99;100.00
74905;BME280;63465;50.862;6.220;2023-10-08T10:04:59;100892.66;;;22.25;100.00
74905;BME280;63465;50.862;6.220;2023-10-08T10:07:26;100887.38;;;22.80;100.00
74905;BME280;63465;50.862;6.220;2023-10-08T10:09:54;100894.88;;;21.73;100.00
74905;BME280;63465;50.862;6.220;2023-10-08T10:12:24;100889.78;;;21.93;100.00
74905;BME280;63465;50.862;6.220;2023-10-08T10:14:53;100879.47;;;23.11;100.00
74905;BME280;63465;50.862;6.220;2023-10-08T10:17:21;100883.47;;;22.51;100.00
74905;BME280;63465;50.862;6.220;2023-10-08T10:20:00;100888.69;;;23.09;100.00
74905;BME280;63465;50.862;6.220;2023-10-08T10:22:34;100882.34;;;23.63;100.00
74905;BME280;63465;50.862;6.220;2023-10-08T10:25:02;100892.78;;;22.69;100.00
74905;BME280;63465;50.862;6.220;2023-10-08T10:28:21;100895.06;;;23.19;100.00
74905;BME280;63465;50.862;6.220;2023-10-08T10:30:29;100886.41;;;22.70;100.00
74905;BME280;63465;50.862;6.220;2023-10-08T10:32:55;100874.00;;;23.23;100.00
74905;BME280;63465;50.862;6.220;2023-10-08T10:35:25;100880.81;;;23.49;100.00
74905;BME280;63465;50.862;6.220;2023-10-08T10:37:53;100882.03;;;23.02;100.00
74905;BME280;63465;50.862;6.220;2023-10-08T10:40:21;100881.66;;;23.06;100.00
74905;BME280;63465;50.862;6.220;2023-10-08T10:43:07;100888.06;;;23.05;100.00
74905;BME280;63465;50.862;6.220;2023-10-08T10:45:34;100887.25;;;22.82;100.00
74905;BME280;63465;50.862;6.220;2023-10-08T10:48:02;100882.16;;;23.11;100.00
74905;BME280;63465;50.862;6.220;2023-10-08T10:50:40;100876.25;;;23.06;100.00
74905;BME280;63465;50.862;6.220;2023-10-08T10:53:17;100865.97;;;23.54;100.00
74905;BME280;63465;50.862;6.220;2023-10-08T10:55:43;100863.13;;;22.90;100.00
74905;BME280;63465;50.862;6.220;2023-10-08T10:58:27;100864.41;;;24.45;100.00
74905;BME280;63465;50.862;6.220;2023-10-08T11:00:54;100857.97;;;24.36;100.00
74905;BME280;63465;50.862;6.220;2023-10-08T11:03:23;100850.56;;;24.48;100.00
74905;BME280;63465;50.862;6.220;2023-10-08T11:05:52;100847.97;;;24.06;100.00
74905;BME280;63465;50.862;6.220;2023-10-08T11:08:20;100836.44;;;25.24;100.00
74905;BME280;63465;50.862;6.220;2023-10-08T11:10:48;100838.34;;;22.51;100.00
74905;BME280;63465;50.862;6.220;2023-10-08T11:13:20;100841.66;;;23.42;100.00
74905;BME280;63465;50.862;6.220;2023-10-08T11:15:49;100847.16;;;21.85;100.00
74905;BME280;63465;50.862;6.220;2023-10-08T11:18:18;100864.94;;;21.88;100.00
74905;BME280;63465;50.862;6.220;2023-10-08T11:20:44;100868.75;;;21.85;100.00
74905;BME280;63465;50.862;6.220;2023-10-08T11:23:10;100871.63;;;22.18;100.00
74905;BME280;63465;50.862;6.220;2023-10-08T11:25:57;100864.81;;;21.89;100.00
74905;BME280;63465;50.862;6.220;2023-10-08T11:31:07;100862.59;;;20.99;100.00
74905;BME280;63465;50.862;6.220;2023-10-08T11:33:37;100850.47;;;21.89;100.00
74905;BME280;63465;50.862;6.220;2023-10-08T11:36:05;100847.63;;;22.02;100.00
74905;BME280;63465;50.862;6.220;2023-10-08T11:38:51;100839.97;;;21.62;100.00
74905;BME280;63465;50.862;6.220;2023-10-08T11:41:18;100843.13;;;21.31;100.00
74905;BME280;63465;50.862;6.220;2023-10-08T11:43:50;100845.38;;;21.37;100.00
74905;BME280;63465;50.862;6.220;2023-10-08T11:46:31;100849.78;;;22.32;100.00
74905;BME280;63465;50.862;6.220;2023-10-08T11:49:07;100854.66;;;22.16;100.00
74905;BME280;63465;50.862;6.220;2023-10-08T11:51:36;100841.03;;;22.06;100.00
74905;BME280;63465;50.862;6.220;2023-10-08T11:56:31;100840.06;;;21.00;100.00
74905;BME280;63465;50.862;6.220;2023-10-08T11:58:59;100838.22;;;22.53;100.00
74905;BME280;63465;50.862;6.220;2023-10-08T12:01:26;100825.22;;;24.28;100.00
74905;BME280;63465;50.862;6.220;2023-10-08T12:03:55;100824.88;;;22.72;100.00
74905;BME280;63465;50.862;6.220;2023-10-08T12:06:25;100823.81;;;23.19;100.00
74905;BME280;63465;50.862;6.220;2023-10-08T12:08:54;100828.34;;;22.63;100.00
74905;BME280;63465;50.862;6.220;2023-10-08T12:11:26;100826.41;;;22.20;100.00
74905;BME280;63465;50.862;6.220;2023-10-08T12:13:58;100822.59;;;22.56;100.00
74905;BME280;63465;50.862;6.220;2023-10-08T12:16:28;100820.41;;;22.39;100.00
74905;BME280;63465;50.862;6.220;2023-10-08T12:19:01;100812.63;;;22.23;100.00
74905;BME280;63465;50.862;6.220;2023-10-08T12:21:28;100812.50;;;22.24;100.00
74905;BME280;63465;50.862;6.220;2023-10-08T12:24:00;100809.22;;;21.51;100.00
74905;BME280;63465;50.862;6.220;2023-10-08T12:26:30;100813.97;;;21.48;100.00
74905;BME280;63465;50.862;6.220;2023-10-08T12:28:56;100814.34;;;21.90;100.00
74905;BME280;63465;50.862;6.220;2023-10-08T12:31:23;100806.88;;;22.50;100.00
74905;BME280;63465;50.862;6.220;2023-10-08T12:33:50;100798.84;;;22.60;100.00
74905;BME280;63465;50.862;6.220;2023-10-08T12:36:19;100803.06;;;22.41;100.00
74905;BME280;63465;50.862;6.220;2023-10-08T12:38:48;100794.22;;;22.39;100.00
74905;BME280;63465;50.862;6.220;2023-10-08T12:41:14;100806.19;;;22.69;100.00
74905;BME280;63465;50.862;6.220;2023-10-08T12:43:43;100809.44;;;22.52;100.00
74905;BME280;63465;50.862;6.220;2023-10-08T12:46:11;100807.69;;;22.28;100.00
74905;BME280;63465;50.862;6.220;2023-10-08T12:48:43;100809.50;;;22.84;100.00
74905;BME280;63465;50.862;6.220;2023-10-08T12:51:09;100807.94;;;21.91;100.00
74905;BME280;63465;50.862;6.220;2023-10-08T12:53:36;100806.97;;;22.71;100.00
74905;BME280;63465;50.862;6.220;2023-10-08T12:56:09;100797.44;;;22.77;100.00
74905;BME280;63465;50.862;6.220;2023-10-08T12:58:41;100798.84;;;22.71;100.00
74905;BME280;63465;50.862;6.220;2023-10-08T13:01:09;100790.41;;;22.31;100.00
74905;BME280;63465;50.862;6.220;2023-10-08T13:03:39;100791.22;;;22.65;100.00
74905;BME280;63465;50.862;6.220;2023-10-08T13:06:10;100781.41;;;23.29;100.00
74905;BME280;63465;50.862;6.220;2023-10-08T13:08:40;100784.03;;;22.75;100.00
74905;BME280;63465;50.862;6.220;2023-10-08T13:11:06;100773.72;;;23.02;100.00
74905;BME280;63465;50.862;6.220;2023-10-08T13:13:32;100766.25;;;22.61;100.00